Time;durP1;ratioP1;P1;durP2;ratioP2;P2;SDS_P1;SDS_P2;PMS_P1;PMS_P2;Temp;Humidity;BMP_temperature;BMP_pressure;BME280_temperature;BME280_humidity;BME280_pressure;Samples;Min_cycle;Max_cycle;Signal;HPM_P1;HPM_P2
2022/09/13 08:35:18;;;;;;;;;4.25;4.25;;;;;24.09;45.54;100240.88;5117402;27;45379;-53
2022/09/13 08:37:43;;;;;;;;;4.75;4.75;;;;;24.09;45.40;100249.66;5117827;27;45313;-49
2022/09/13 08:40:09;;;;;;;;;7.00;5.00;;;;;24.09;45.40;100249.66;5115928;27;45513;-51
2022/09/13 08:42:57;;;;;;;;;4.00;4.00;;;;;24.11;45.43;100259.28;5117695;27;45298;-54
2022/09/13 08:45:23;;;;;;;;;4.00;4.00;;;;;24.08;45.46;100263.88;5122319;27;45256;-50
2022/09/13 08:47:57;;;;;;;;;4.75;4.75;;;;;24.09;45.40;100268.19;5118258;27;45298;-51
2022/09/13 08:50:26;;;;;;;;;5.25;5.00;;;;;24.08;45.82;100276.25;5117373;27;45640;-56
2022/09/13 08:53:00;;;;;;;;;5.00;5.00;;;;;24.11;45.36;100283.97;5116243;27;45808;-49
2022/09/13 08:55:35;;;;;;;;;3.75;3.75;;;;;24.10;45.53;100292.84;5118571;27;45350;-54
2022/09/13 08:58:04;;;;;;;;;6.00;5.00;;;;;24.11;45.79;100280.44;5117071;27;45356;-47
2022/09/13 09:00:38;;;;;;;;;5.50;5.00;;;;;24.11;45.81;100291.03;5117195;27;47401;-47
2022/09/13 09:03:29;;;;;;;;;5.00;5.00;;;;;24.11;45.36;100293.69;5116714;27;45477;-49
2022/09/13 09:05:54;;;;;;;;;4.00;4.00;;;;;24.11;45.86;100285.75;5117109;27;45393;-55
2022/09/13 09:08:41;;;;;;;;;3.75;3.75;;;;;24.12;45.16;100292.72;5116236;27;45464;-48
2022/09/13 09:11:19;;;;;;;;;4.25;4.25;;;;;24.12;45.85;100295.38;5116930;27;45477;-46
2022/09/13 09:14:10;;;;;;;;;5.00;5.00;;;;;24.11;45.54;100302.50;5117785;27;45411;-50
2022/09/13 09:16:44;;;;;;;;;5.00;3.00;;;;;24.12;45.38;100311.25;5110279;27;45662;-48
2022/09/13 09:19:22;;;;;;;;;6.50;4.75;;;;;24.12;45.86;100335.09;5117349;27;45479;-50
2022/09/13 09:21:49;;;;;;;;;4.50;4.50;;;;;24.11;45.69;100313.09;5115959;27;47351;-50
2022/09/13 09:24:22;;;;;;;;;5.25;4.00;;;;;24.12;45.83;100303.31;5117231;27;45338;-54
2022/09/13 09:26:47;;;;;;;;;5.25;3.75;;;;;24.11;45.35;100301.63;5120596;27;45361;-48
2022/09/13 09:29:17;;;;;;;;;5.00;3.75;;;;;24.12;45.88;100298.03;5120513;27;45595;-51
2022/09/13 09:32:27;;;;;;;;;3.50;3.50;;;;;24.13;45.65;100294.41;5120281;27;46692;-56
2022/09/13 09:35:27;;;;;;;;;4.00;4.00;;;;;24.13;46.05;100308.50;5120069;27;45773;-49
2022/09/13 09:38:22;;;;;;;;;4.00;4.00;;;;;24.14;46.34;100306.69;5119198;27;45261;-48
2022/09/13 09:40:47;;;;;;;;;6.25;4.25;;;;;24.14;45.77;100319.94;5120779;27;45399;-55
2022/09/13 09:43:23;;;;;;;;;5.50;4.50;;;;;24.13;45.75;100311.16;5119831;27;45477;-53
2022/09/13 09:45:52;;;;;;;;;3.00;3.00;;;;;24.15;46.33;100316.31;5120206;27;45175;-54
2022/09/13 09:48:25;;;;;;;;;5.00;5.00;;;;;24.15;45.82;100324.25;5120273;27;45511;-54
2022/09/13 09:50:53;;;;;;;;;4.00;4.00;;;;;24.15;46.11;100319.78;5134669;27;46285;-51
2022/09/13 09:53:27;;;;;;;;;5.50;4.00;;;;;24.17;45.95;100314.41;5121042;27;45575;-52
2022/09/13 09:56:04;;;;;;;;;5.75;4.75;;;;;24.16;45.78;100315.34;5121374;27;45343;-48
2022/09/13 09:58:38;;;;;;;;;4.50;4.00;;;;;24.17;46.45;100322.34;5121480;27;45435;-52
2022/09/13 10:01:05;;;;;;;;;5.25;5.25;;;;;24.17;46.29;100330.28;5121020;27;45466;-50
2022/09/13 10:03:32;;;;;;;;;4.25;4.25;;;;;24.18;45.80;100321.38;5120316;27;45480;-56
2022/09/13 10:06:11;;;;;;;;;5.00;5.00;;;;;24.18;46.20;100321.38;5127856;27;45325;-52
2022/09/13 10:08:40;;;;;;;;;4.75;4.75;;;;;24.17;46.02;100320.53;5130179;27;45536;-55
2022/09/13 10:11:06;;;;;;;;;4.25;4.25;;;;;24.18;45.88;100329.31;5120638;27;45417;-50
2022/09/13 10:13:32;;;;;;;;;4.50;4.50;;;;;24.19;46.20;100331.00;5121704;27;45750;-51
2022/09/13 10:16:06;;;;;;;;;4.75;4.75;;;;;24.20;45.87;100327.38;5122766;27;45700;-51
2022/09/13 10:18:35;;;;;;;;;6.75;5.00;;;;;24.19;46.55;100329.19;5126446;27;45160;-54
2022/09/13 10:21:05;;;;;;;;;6.00;4.50;;;;;24.20;46.54;100327.38;5127194;27;45532;-56
2022/09/13 10:23:33;;;;;;;;;6.00;4.00;;;;;24.20;46.37;100327.38;5133080;27;46320;-50
2022/09/13 10:26:05;;;;;;;;;6.00;5.00;;;;;24.21;46.66;100326.41;5138286;27;45077;-56
2022/09/13 10:28:34;;;;;;;;;2.50;2.25;;;;;24.21;46.62;100329.06;5133642;27;45267;-54
2022/09/13 10:31:07;;;;;;;;;4.00;4.00;;;;;24.21;46.12;100329.91;5134102;27;45238;-56
2022/09/13 10:33:37;;;;;;;;;5.00;5.00;;;;;24.21;46.21;100324.63;5137653;27;45553;-52
2022/09/13 10:36:15;;;;;;;;;6.00;5.00;;;;;24.21;46.25;100324.63;5136470;27;45852;-52
2022/09/13 10:38:49;;;;;;;;;4.00;4.00;;;;;24.20;46.13;100314.13;5137652;27;45176;-50
2022/09/13 10:41:25;;;;;;;;;4.00;4.00;;;;;24.21;46.51;100313.19;5136235;27;45226;-50
2022/09/13 10:44:02;;;;;;;;;4.00;4.00;;;;;24.21;46.67;100318.47;5132462;27;46699;-52
2022/09/13 10:46:35;;;;;;;;;5.00;5.00;;;;;24.21;46.19;100314.03;5123713;27;45328;-52
2022/09/13 10:49:00;;;;;;;;;4.50;4.50;;;;;24.21;46.62;100308.72;5126396;27;45363;-48
2022/09/13 10:51:26;;;;;;;;;9.00;5.75;;;;;24.21;46.30;100303.44;5120204;27;45638;-51
2022/09/13 10:54:16;;;;;;;;;5.67;5.67;;;;;24.23;46.81;100303.31;5120633;27;46493;-51
2022/09/13 10:56:44;;;;;;;;;3.00;3.00;;;;;24.22;46.47;100298.97;5127444;27;45339;-49
2022/09/13 10:59:30;;;;;;;;;3.75;3.75;;;;;24.19;46.19;100296.59;5126535;27;45380;-49
2022/09/13 11:02:28;;;;;;;;;0.25;0.25;;;;;24.22;46.27;100299.84;5119978;27;45269;-47
2022/09/13 11:05:08;;;;;;;;;5.75;4.25;;;;;24.23;46.11;100284.78;5095750;27;46523;-48
2022/09/13 11:08:04;;;;;;;;;5.00;5.00;;;;;24.23;46.14;100282.13;5098820;27;45355;-55
2022/09/13 11:10:54;;;;;;;;;5.00;3.50;;;;;24.23;46.24;100282.97;5100269;27;45320;-54
2022/09/13 11:13:29;;;;;;;;;6.75;4.25;;;;;24.25;46.21;100293.44;5100220;27;45230;-54
2022/09/13 11:16:11;;;;;;;;;5.00;4.00;;;;;24.24;46.68;100282.03;5079861;27;47457;-54
2022/09/13 11:19:25;;;;;;;;;5.25;5.00;;;;;24.26;46.33;100289.84;5098272;27;45319;-49
2022/09/13 11:22:21;;;;;;;;;5.00;5.00;;;;;24.27;46.36;100278.28;5058092;27;45550;-54
2022/09/13 11:25:15;;;;;;;;;3.75;3.75;;;;;24.27;46.67;100280.94;5120283;27;45153;-52
2022/09/13 11:27:41;;;;;;;;;4.25;4.25;;;;;24.27;46.54;100275.63;5124846;27;45550;-55
2022/09/13 11:30:18;;;;;;;;;4.33;3.33;;;;;24.27;46.37;100280.94;5123186;27;45297;-55
2022/09/13 11:33:11;;;;;;;;;4.00;4.00;;;;;24.29;46.16;100272.84;5118400;27;45411;-58
2022/09/13 11:36:04;;;;;;;;;6.00;5.00;;;;;24.29;46.22;100273.72;5117707;27;45520;-53
2022/09/13 11:38:32;;;;;;;;;5.75;4.75;;;;;24.29;46.47;100273.72;5118074;27;45421;-55
2022/09/13 11:41:16;;;;;;;;;5.00;5.00;;;;;24.29;46.62;100268.41;5118027;27;45175;-55
2022/09/13 11:43:51;;;;;;;;;5.25;5.00;;;;;24.29;46.23;100278.16;5118669;27;45384;-53
2022/09/13 11:46:24;;;;;;;;;5.00;3.50;;;;;24.28;46.67;100282.59;5117931;27;45363;-48
2022/09/13 11:49:21;;;;;;;;;3.50;3.50;;;;;24.28;46.69;100276.44;5117499;27;45601;-47
2022/09/13 11:52:17;;;;;;;;;4.75;4.75;;;;;24.27;46.15;100270.34;5107457;27;45651;-49
2022/09/13 11:55:01;;;;;;;;;6.00;5.00;;;;;24.27;46.68;100259.75;5118762;27;45335;-49
2022/09/13 11:57:39;;;;;;;;;5.00;3.75;;;;;24.28;46.46;100256.13;5118917;27;45279;-53
2022/09/13 12:00:14;;;;;;;;;5.75;5.50;;;;;24.28;46.42;100253.47;5118593;27;46463;-52
2022/09/13 12:02:46;;;;;;;;;7.75;4.00;;;;;24.28;46.13;100244.69;5118055;27;45229;-48
2022/09/13 12:05:23;;;;;;;;;5.00;5.00;;;;;24.29;46.12;100247.22;5118796;27;45559;-48
2022/09/13 12:07:55;;;;;;;;;4.00;4.00;;;;;24.30;46.70;100263.94;5132427;27;45314;-53
2022/09/13 12:10:36;;;;;;;;;5.00;4.00;;;;;24.30;46.08;100266.59;5126790;27;45558;-53
2022/09/13 12:13:03;;;;;;;;;3.50;3.50;;;;;24.29;46.65;100263.13;5127072;27;45328;-56
2022/09/13 12:15:40;;;;;;;;;3.50;3.50;;;;;24.30;46.55;100269.22;5118960;27;45386;-52
2022/09/13 12:18:15;;;;;;;;;5.00;4.00;;;;;24.30;46.22;100264.81;5118575;27;45549;-48
2022/09/13 12:20:50;;;;;;;;;4.00;4.00;;;;;24.29;46.02;100259.59;5114516;27;47791;-52
2022/09/13 12:23:22;;;;;;;;;2.25;2.25;;;;;24.31;46.33;100265.63;5118005;27;45269;-49
2022/09/13 12:25:55;;;;;;;;;6.50;4.50;;;;;24.31;46.70;100255.84;5117883;27;45270;-48
2022/09/13 12:28:45;;;;;;;;;3.00;3.00;;;;;24.30;46.73;100256.84;5117862;27;45249;-50
2022/09/13 12:31:18;;;;;;;;;5.50;4.25;;;;;24.31;46.39;100257.69;5117324;27;46247;-51
2022/09/13 12:33:44;;;;;;;;;4.00;4.00;;;;;24.33;46.10;100253.94;5116704;27;45427;-50
2022/09/13 12:36:27;;;;;;;;;4.50;4.50;;;;;24.34;46.03;100245.03;5116111;27;45494;-50
2022/09/13 12:38:52;;;;;;;;;4.50;4.00;;;;;24.34;46.58;100242.38;5117357;27;45396;-51
2022/09/13 12:41:42;;;;;;;;;5.00;5.00;;;;;24.34;46.61;100234.44;5117380;27;47137;-47
2022/09/13 12:44:39;;;;;;;;;4.00;4.00;;;;;24.33;46.43;100221.31;5115590;27;45816;-53
2022/09/13 12:47:22;;;;;;;;;3.25;3.25;;;;;24.33;46.24;100206.25;5120022;27;45234;-56
2022/09/13 12:50:15;;;;;;;;;4.50;3.50;;;;;24.34;46.27;100209.78;5115086;27;45348;-51
2022/09/13 12:53:11;;;;;;;;;4.50;4.50;;;;;24.34;46.43;100197.34;5096900;27;45532;-53
2022/09/13 12:55:53;;;;;;;;;3.75;3.75;;;;;24.34;46.32;100197.34;5096588;27;45395;-52
2022/09/13 12:58:43;;;;;;;;;5.00;4.75;;;;;24.33;46.26;100195.66;5096453;27;45432;-52
2022/09/13 13:01:13;;;;;;;;;5.00;5.00;;;;;24.34;46.25;100188.59;5096494;27;45213;-53
2022/09/13 13:03:50;;;;;;;;;5.00;4.00;;;;;24.35;46.20;100185.78;5095810;27;45729;-54
2022/09/13 13:06:46;;;;;;;;;6.50;4.00;;;;;24.34;46.50;100178.81;5095681;27;45522;-53
2022/09/13 13:09:51;;;;;;;;;6.00;5.00;;;;;24.36;46.24;100174.25;5096273;27;45311;-54
2022/09/13 13:12:35;;;;;;;;;4.00;4.00;;;;;24.35;46.61;100175.22;5096974;27;45574;-47
2022/09/13 13:15:16;;;;;;;;;4.00;4.00;;;;;24.36;46.08;100174.25;5096317;27;45422;-50
2022/09/13 13:17:50;;;;;;;;;4.00;4.00;;;;;24.37;46.06;100173.28;5096461;27;45422;-50
2022/09/13 13:20:52;;;;;;;;;4.25;4.25;;;;;24.38;46.62;100174.09;5111043;27;45462;-55
2022/09/13 13:23:38;;;;;;;;;5.00;4.50;;;;;24.38;46.88;100151.13;5117512;27;45213;-50
2022/09/13 13:26:19;;;;;;;;;4.00;4.00;;;;;24.38;46.85;100144.97;5124878;27;46268;-51
2022/09/13 13:28:45;;;;;;;;;5.75;4.50;;;;;24.38;46.28;100145.81;5120790;27;45358;-48
2022/09/13 13:31:26;;;;;;;;;4.00;4.00;;;;;24.38;46.59;100153.78;5117138;27;45426;-51
2022/09/13 13:33:57;;;;;;;;;4.25;4.25;;;;;24.39;46.68;100158.09;5116219;27;46102;-51
2022/09/13 13:36:44;;;;;;;;;5.00;5.00;;;;;24.41;46.21;100167.72;5116466;27;47297;-47
2022/09/13 13:39:21;;;;;;;;;5.00;5.00;;;;;24.41;46.34;100176.50;5116728;27;45743;-48
2022/09/13 13:41:56;;;;;;;;;5.75;4.25;;;;;24.41;46.73;100180.97;5119931;27;45442;-49
2022/09/13 13:44:21;;;;;;;;;4.00;4.00;;;;;24.41;46.28;100178.34;5120004;27;45451;-47
2022/09/13 13:46:51;;;;;;;;;3.33;3.33;;;;;24.41;46.90;100165.09;5117304;27;46102;-47
2022/09/13 13:49:29;;;;;;;;;4.75;3.75;;;;;24.41;46.96;100168.56;5115696;27;45188;-47
2022/09/13 13:52:23;;;;;;;;;3.00;3.00;;;;;24.41;46.33;100162.44;5116501;27;45413;-48
2022/09/13 13:55:01;;;;;;;;;4.25;4.25;;;;;24.41;46.51;100160.63;5108050;27;45315;-48
2022/09/13 13:57:26;;;;;;;;;3.50;3.50;;;;;24.42;46.29;100159.66;5116420;27;46221;-46
2022/09/13 14:00:12;;;;;;;;;4.00;4.00;;;;;24.42;46.52;100145.59;5116699;27;45367;-52
2022/09/13 14:02:37;;;;;;;;;5.00;4.00;;;;;24.42;46.42;100142.94;5115243;27;45502;-50
2022/09/13 14:05:07;;;;;;;;;5.25;4.00;;;;;24.42;46.26;100143.75;5098998;27;45546;-47
2022/09/13 14:07:52;;;;;;;;;3.75;3.75;;;;;24.42;46.84;100140.28;5096900;27;45336;-47
2022/09/13 14:10:48;;;;;;;;;3.50;3.50;;;;;24.43;46.70;100134.00;5089193;27;45221;-49
2022/09/13 14:13:17;;;;;;;;;5.00;5.00;;;;;24.44;46.15;100135.69;5099762;27;45238;-49
2022/09/13 14:16:05;;;;;;;;;3.75;3.75;;;;;24.40;46.92;100127.16;5099769;27;45486;-52
2022/09/13 14:18:40;;;;;;;;;4.00;4.00;;;;;24.43;46.47;100132.19;5105062;27;46574;-48
2022/09/13 14:21:29;;;;;;;;;3.25;3.25;;;;;24.43;47.03;100120.75;5119742;27;45395;-46
2022/09/13 14:24:26;;;;;;;;;4.00;4.00;;;;;24.43;46.73;100124.25;5120847;27;45321;-47
2022/09/13 14:26:57;;;;;;;;;5.00;4.50;;;;;24.44;46.88;100125.09;5114600;27;44988;-50
2022/09/13 14:29:26;;;;;;;;;4.00;4.00;;;;;24.45;46.31;100124.13;5139057;27;45554;-49
2022/09/13 14:31:58;;;;;;;;;3.00;3.00;;;;;24.44;46.88;100123.28;5121693;27;45201;-52
2022/09/13 14:34:29;;;;;;;;;4.00;4.00;;;;;24.45;46.59;100124.13;5119140;27;45385;-51
2022/09/13 14:36:57;;;;;;;;;5.00;4.00;;;;;24.46;46.88;100121.34;5119808;27;45258;-55
2022/09/13 14:39:23;;;;;;;;;4.00;4.00;;;;;24.45;46.37;100121.47;5119894;27;45487;-50
2022/09/13 14:41:58;;;;;;;;;3.00;3.00;;;;;24.44;46.56;100118.00;5119671;27;45523;-56
2022/09/13 14:44:26;;;;;;;;;3.00;3.00;;;;;24.46;46.26;100123.16;5119574;27;45321;-53
2022/09/13 14:47:06;;;;;;;;;4.75;4.00;;;;;24.47;46.88;100130.13;5120015;27;45521;-52
2022/09/13 14:49:40;;;;;;;;;3.00;3.00;;;;;24.46;46.55;100126.66;5118191;27;45636;-51
2022/09/13 14:52:14;;;;;;;;;5.75;4.75;;;;;24.47;46.24;100131.00;5118818;27;45237;-47
2022/09/13 14:54:47;;;;;;;;;4.00;4.00;;;;;24.47;46.75;100124.84;5118115;27;45411;-54
2022/09/13 14:57:27;;;;;;;;;5.25;5.00;;;;;24.45;46.35;100124.97;5119336;27;45527;-52
2022/09/13 14:59:57;;;;;;;;;6.00;4.00;;;;;24.47;46.55;100128.34;5118820;27;45281;-45
2022/09/13 15:02:26;;;;;;;;;5.00;5.00;;;;;24.47;46.70;100122.19;5118252;27;45976;-45
2022/09/13 15:04:57;;;;;;;;;4.00;3.00;;;;;24.48;46.80;100123.88;5119384;27;45347;-50
2022/09/13 15:07:34;;;;;;;;;4.00;4.00;;;;;24.48;46.92;100134.47;5119404;27;45883;-47
2022/09/13 15:10:19;;;;;;;;;4.00;4.00;;;;;24.48;46.91;100137.94;5118438;27;46640;-57
2022/09/13 15:13:09;;;;;;;;;4.75;3.00;;;;;24.48;46.31;100135.28;5118867;27;45455;-50
2022/09/13 15:15:42;;;;;;;;;5.00;5.00;;;;;24.48;46.44;100130.00;5113636;27;45405;-49
2022/09/13 15:18:08;;;;;;;;;5.00;5.00;;;;;24.48;46.44;100134.47;5118054;27;45445;-53
2022/09/13 15:20:48;;;;;;;;;4.00;4.00;;;;;24.49;46.40;100138.78;5117379;27;47662;-53
2022/09/13 15:23:21;;;;;;;;;4.00;3.50;;;;;24.49;46.22;100131.69;5118416;27;45385;-54
2022/09/13 15:25:50;;;;;;;;;4.50;4.50;;;;;24.48;47.05;100123.88;5117568;27;45360;-51
2022/09/13 15:28:28;;;;;;;;;4.25;4.25;;;;;24.49;46.25;100125.56;5118775;27;45256;-49
2022/09/13 15:30:55;;;;;;;;;4.25;4.25;;;;;24.49;46.94;100117.59;5121731;27;46449;-53
2022/09/13 15:33:30;;;;;;;;;5.00;4.00;;;;;24.49;46.79;100121.06;5116929;27;45217;-56
2022/09/13 15:36:12;;;;;;;;;4.00;4.00;;;;;24.49;46.34;100114.97;5118385;27;45292;-49
2022/09/13 15:38:57;;;;;;;;;4.50;4.50;;;;;24.50;46.41;100116.63;5117743;27;45610;-50
2022/09/13 15:41:28;;;;;;;;;6.25;5.00;;;;;24.49;46.38;100115.78;5119015;27;47234;-47
2022/09/13 15:43:53;;;;;;;;;4.50;4.00;;;;;24.50;46.73;100106.03;5123768;27;45760;-50
2022/09/13 15:46:18;;;;;;;;;4.00;4.00;;;;;24.51;46.53;100110.38;5119288;27;45387;-50
2022/09/13 15:48:55;;;;;;;;;5.50;5.00;;;;;24.49;46.56;100104.34;5117537;27;45775;-48
2022/09/13 15:51:21;;;;;;;;;5.00;5.00;;;;;24.51;47.07;100113.84;5118752;27;45365;-48
2022/09/13 15:53:47;;;;;;;;;7.50;5.75;;;;;24.51;46.49;100116.50;5118067;27;45289;-47
2022/09/13 15:56:19;;;;;;;;;4.00;4.00;;;;;24.50;46.90;100117.47;5118239;27;45237;-54
2022/09/13 15:58:45;;;;;;;;;4.00;4.00;;;;;24.51;47.17;100111.19;5118739;27;45555;-48
2022/09/13 16:01:15;;;;;;;;;5.25;5.25;;;;;24.51;46.90;100113.84;5117979;27;45575;-51
2022/09/13 16:03:41;;;;;;;;;5.00;5.00;;;;;24.52;47.19;100109.41;5116719;27;45452;-54
2022/09/13 16:06:08;;;;;;;;;4.00;4.00;;;;;24.52;46.71;100114.72;5118157;27;45402;-50
2022/09/13 16:08:37;;;;;;;;;5.00;5.00;;;;;24.51;46.56;100107.72;5118381;27;45410;-56
2022/09/13 16:11:02;;;;;;;;;5.50;3.50;;;;;24.50;46.49;100112.16;5117868;27;45600;-54
2022/09/13 16:13:28;;;;;;;;;5.00;5.00;;;;;24.51;46.92;100103.25;5118993;27;45286;-54
2022/09/13 16:15:53;;;;;;;;;5.00;4.25;;;;;24.51;46.93;100110.38;5119678;27;45340;-53
2022/09/13 16:18:19;;;;;;;;;4.00;4.00;;;;;24.52;46.92;100109.41;5115245;27;45414;-52
2022/09/13 16:20:44;;;;;;;;;5.00;5.00;;;;;24.52;46.97;100110.22;5116459;27;45370;-50
2022/09/13 16:23:10;;;;;;;;;4.00;4.00;;;;;24.52;46.98;100112.06;5117642;27;45227;-49
2022/09/13 16:25:37;;;;;;;;;4.00;4.00;;;;;24.52;46.51;100112.06;5117825;27;45383;-51
2022/09/13 16:28:04;;;;;;;;;6.50;4.75;;;;;24.52;46.41;100099.63;5117924;27;45883;-49
2022/09/13 16:30:31;;;;;;;;;5.25;4.00;;;;;24.51;47.05;100089.19;5118275;27;45394;-50
2022/09/13 16:32:57;;;;;;;;;5.00;5.00;;;;;24.51;47.19;100092.66;5111918;27;46172;-49
2022/09/13 16:35:26;;;;;;;;;4.25;4.25;;;;;24.51;47.20;100084.72;5105028;27;45281;-46
2022/09/13 16:37:52;;;;;;;;;5.50;4.25;;;;;24.51;47.15;100087.34;5100093;27;45343;-48
2022/09/13 16:40:18;;;;;;;;;5.75;3.75;;;;;24.52;46.98;100080.28;5099840;27;46126;-48
2022/09/13 16:42:44;;;;;;;;;4.25;4.25;;;;;24.51;46.54;100078.59;5106266;27;45426;-46
2022/09/13 16:45:10;;;;;;;;;4.00;4.00;;;;;24.52;46.38;100082.91;5106260;27;45366;-55
2022/09/13 16:47:36;;;;;;;;;5.25;5.00;;;;;24.52;46.81;100088.22;5116589;27;44846;-51
2022/09/13 16:50:03;;;;;;;;;5.50;5.50;;;;;24.51;47.10;100083.88;5122307;27;45516;-50
2022/09/13 16:52:28;;;;;;;;;4.75;4.75;;;;;24.51;47.06;100087.34;5125885;27;45673;-50
2022/09/13 16:54:55;;;;;;;;;2.50;2.50;;;;;24.51;46.99;100089.19;5117875;27;45210;-46
2022/09/13 16:57:20;;;;;;;;;4.25;4.25;;;;;24.51;46.77;100087.34;5119537;27;45537;-52
2022/09/13 16:59:47;;;;;;;;;4.25;3.00;;;;;24.52;47.29;100088.22;5118948;27;45210;-47
2022/09/13 17:02:13;;;;;;;;;6.00;5.75;;;;;24.50;46.91;100085.69;5128444;27;45321;-52
2022/09/13 17:04:39;;;;;;;;;5.25;5.25;;;;;24.51;47.17;100075.94;5130977;27;45285;-56
2022/09/13 17:07:06;;;;;;;;;5.00;5.00;;;;;24.49;46.74;100064.63;5125314;27;45488;-54
2022/09/13 17:09:32;;;;;;;;;5.00;4.00;;;;;24.51;46.71;100068.81;5121995;27;46940;-50
2022/09/13 17:11:58;;;;;;;;;4.75;4.25;;;;;24.52;46.81;100074.97;5118681;27;45202;-55
2022/09/13 17:14:23;;;;;;;;;4.00;4.00;;;;;24.51;46.88;100081.22;5118100;27;45360;-54
2022/09/13 17:16:51;;;;;;;;;5.00;5.00;;;;;24.51;47.13;100076.75;5117073;27;45626;-56
2022/09/13 17:19:20;;;;;;;;;6.75;5.00;;;;;24.52;47.01;100077.63;5117441;27;45531;-54
2022/09/13 17:21:46;;;;;;;;;6.25;6.25;;;;;24.50;47.03;100072.44;5117382;27;45680;-53
2022/09/13 17:24:12;;;;;;;;;7.25;6.00;;;;;24.51;47.44;100070.63;5118451;27;45361;-57
2022/09/13 17:26:37;;;;;;;;;5.00;5.00;;;;;24.50;46.97;100074.25;5118628;27;45619;-54
2022/09/13 17:29:03;;;;;;;;;4.00;4.00;;;;;24.50;46.97;100083.03;5117188;27;45433;-56
2022/09/13 17:31:28;;;;;;;;;5.75;5.00;;;;;24.51;46.85;100089.19;5116789;27;45190;-53
2022/09/13 17:33:54;;;;;;;;;5.00;5.00;;;;;24.50;47.03;100085.69;5119484;27;45226;-50
2022/09/13 17:36:19;;;;;;;;;7.00;6.00;;;;;24.50;46.87;100093.63;5118707;27;45283;-50
2022/09/13 17:38:46;;;;;;;;;4.75;4.75;;;;;24.50;46.81;100098.09;5118577;27;46570;-54
2022/09/13 17:41:17;;;;;;;;;4.00;4.00;;;;;24.49;47.32;100089.28;5119410;27;45905;-55
2022/09/13 17:43:44;;;;;;;;;5.50;5.50;;;;;24.50;46.97;100090.16;5131204;27;45215;-54
2022/09/13 17:46:15;;;;;;;;;5.75;4.00;;;;;24.50;47.48;100090.97;5131961;27;45158;-53
2022/09/13 17:48:41;;;;;;;;;7.00;5.50;;;;;24.51;47.16;100094.47;5138629;27;45601;-48
2022/09/13 17:51:12;;;;;;;;;5.25;5.00;;;;;24.50;47.01;100101.56;5140178;27;45034;-46
2022/09/13 17:53:47;;;;;;;;;5.25;5.00;;;;;24.51;47.24;100107.72;5138860;27;45782;-50
2022/09/13 17:56:29;;;;;;;;;4.50;4.00;;;;;24.50;47.11;100090.16;5136583;27;45312;-51
2022/09/13 17:58:55;;;;;;;;;7.50;5.00;;;;;24.51;47.32;100086.53;5135652;27;46163;-47
2022/09/13 18:01:21;;;;;;;;;4.50;4.00;;;;;24.51;47.59;100091.84;5133409;27;45438;-55
2022/09/13 18:03:46;;;;;;;;;4.00;4.00;;;;;24.51;46.94;100091.84;5141700;27;45230;-46
2022/09/13 18:06:13;;;;;;;;;5.50;5.00;;;;;24.51;47.37;100097.13;5135647;27;45332;-46
2022/09/13 18:08:40;;;;;;;;;5.00;5.00;;;;;24.51;47.00;100091.84;5132440;27;46231;-50
2022/09/13 18:11:06;;;;;;;;;6.50;5.75;;;;;24.51;47.36;100094.47;5131000;27;45301;-52
2022/09/13 18:13:33;;;;;;;;;4.25;4.25;;;;;24.49;47.01;100091.13;5130817;27;45240;-50
2022/09/13 18:16:16;;;;;;;;;5.25;5.25;;;;;24.50;47.25;100100.75;5121828;27;45382;-53
2022/09/13 18:18:44;;;;;;;;;7.25;5.50;;;;;24.50;46.79;100098.09;5119941;27;45385;-49
2022/09/13 18:21:13;;;;;;;;;4.75;4.75;;;;;24.50;47.57;100100.75;5120343;27;45298;-54
2022/09/13 18:23:39;;;;;;;;;5.00;5.00;;;;;24.50;47.42;100100.75;5118957;27;45402;-58
2022/09/13 18:26:07;;;;;;;;;5.25;5.25;;;;;24.50;46.85;100098.91;5120027;27;45462;-51
2022/09/13 18:28:33;;;;;;;;;5.75;5.25;;;;;24.50;47.00;100090.97;5119988;27;46462;-52
2022/09/13 18:31:01;;;;;;;;;6.25;5.50;;;;;24.50;47.57;100088.31;5104731;27;45690;-55
2022/09/13 18:33:27;;;;;;;;;6.00;6.00;;;;;24.51;47.70;100097.13;5119975;27;45455;-52
2022/09/13 18:36:01;;;;;;;;;6.00;6.00;;;;;24.51;47.18;100094.47;5120138;27;45338;-52
2022/09/13 18:38:30;;;;;;;;;5.75;5.75;;;;;24.50;47.63;100096.28;5119813;27;46249;-53
2022/09/13 18:40:58;;;;;;;;;6.00;6.00;;;;;24.51;46.85;100105.06;5119501;27;45303;-50
2022/09/13 18:43:24;;;;;;;;;5.00;5.00;;;;;24.51;46.87;100105.06;5119988;27;45304;-52
2022/09/13 18:45:56;;;;;;;;;7.50;7.50;;;;;24.50;47.06;100103.41;5120490;27;45509;-52
2022/09/13 18:48:22;;;;;;;;;5.00;5.00;;;;;24.50;46.93;100106.88;5131012;27;46375;-48
2022/09/13 18:50:47;;;;;;;;;6.00;6.00;;;;;24.51;47.50;100103.25;5130197;27;45186;-45
2022/09/13 18:53:12;;;;;;;;;6.00;6.00;;;;;24.51;47.23;100102.44;5119348;27;45361;-48
2022/09/13 18:55:38;;;;;;;;;4.50;4.50;;;;;24.50;46.99;100095.44;5119915;27;45241;-46
2022/09/13 18:58:03;;;;;;;;;7.00;6.00;;;;;24.51;46.97;100100.59;5118087;27;64312;-48
2022/09/13 19:00:30;;;;;;;;;6.00;6.00;;;;;24.51;46.99;100105.06;5118444;27;45551;-51
2022/09/13 19:02:56;;;;;;;;;6.00;6.00;;;;;24.48;47.80;100113.28;5117422;27;45470;-52
2022/09/13 19:05:24;;;;;;;;;6.00;6.00;;;;;24.50;47.14;100114.00;5119614;27;45513;-49
2022/09/13 19:07:50;;;;;;;;;6.25;6.25;;;;;24.51;46.78;100126.28;5119289;27;45396;-47
2022/09/13 19:10:15;;;;;;;;;7.00;5.50;;;;;24.50;47.11;100136.00;5118855;27;45398;-45
2022/09/13 19:12:42;;;;;;;;;4.00;4.00;;;;;24.51;46.99;100136.88;5119395;27;45783;-48
2022/09/13 19:15:09;;;;;;;;;4.50;4.50;;;;;24.50;46.66;100135.19;5118208;27;45651;-48
2022/09/13 19:17:34;;;;;;;;;4.00;4.00;;;;;24.51;46.96;100142.16;5119058;27;46552;-49
2022/09/13 19:20:00;;;;;;;;;5.00;5.00;;;;;24.51;47.01;100140.34;5118576;27;45313;-50
2022/09/13 19:22:25;;;;;;;;;6.00;6.00;;;;;24.50;47.45;100141.31;5120108;27;45256;-49
2022/09/13 19:24:53;;;;;;;;;8.50;6.25;;;;;24.50;46.79;100143.13;5120876;27;45208;-47
2022/09/13 19:27:19;;;;;;;;;6.00;6.00;;;;;24.51;46.91;100144.81;5119072;27;45633;-51
2022/09/13 19:29:45;;;;;;;;;6.00;6.00;;;;;24.50;46.84;100132.53;5116736;27;45718;-55
2022/09/13 19:32:11;;;;;;;;;7.50;5.25;;;;;24.50;47.34;100127.22;5127642;27;45355;-48
2022/09/13 19:34:36;;;;;;;;;8.00;6.75;;;;;24.51;47.31;100129.75;5123139;27;45551;-51
2022/09/13 19:37:02;;;;;;;;;7.00;7.00;;;;;24.51;47.18;100126.28;5118391;27;46120;-47
2022/09/13 19:39:28;;;;;;;;;10.00;7.50;;;;;24.50;47.33;100124.59;5121922;27;45846;-51
2022/09/13 19:41:54;;;;;;;;;6.75;6.00;;;;;24.48;47.40;100118.56;5125198;27;45198;-57
2022/09/13 19:44:19;;;;;;;;;7.00;6.75;;;;;24.51;46.99;100123.63;5136058;27;45551;-51
2022/09/13 19:46:45;;;;;;;;;7.25;7.25;;;;;24.50;47.43;100122.75;5132976;27;45315;-51
2022/09/13 19:49:15;;;;;;;;;6.00;6.00;;;;;24.49;47.24;100126.38;5119335;27;45348;-44
2022/09/13 19:51:43;;;;;;;;;7.00;6.00;;;;;24.49;47.81;100123.72;5120769;27;45382;-52
2022/09/13 19:54:13;;;;;;;;;8.00;6.75;;;;;24.50;47.06;100127.22;5119287;27;45297;-46
2022/09/13 19:56:44;;;;;;;;;6.25;5.50;;;;;24.49;47.50;100126.38;5118058;27;45540;-46
2022/09/13 19:59:14;;;;;;;;;7.00;5.50;;;;;24.50;47.57;100119.28;5116934;27;45943;-48
2022/09/13 20:01:42;;;;;;;;;6.75;6.00;;;;;24.49;47.72;100120.25;5118581;27;45498;-55
2022/09/13 20:04:13;;;;;;;;;7.25;7.25;;;;;24.50;47.16;100111.34;5117802;27;45490;-56
2022/09/13 20:06:42;;;;;;;;;7.25;7.25;;;;;24.49;47.63;100101.72;5117815;27;46318;-46
2022/09/13 20:09:08;;;;;;;;;7.00;6.50;;;;;24.50;47.65;100100.75;5117098;27;45217;-53
2022/09/13 20:11:36;;;;;;;;;6.25;6.25;;;;;24.48;47.31;100092.91;5118803;27;45578;-52
2022/09/13 20:14:02;;;;;;;;;7.75;7.75;;;;;24.48;47.75;100090.25;5127326;27;45388;-47
2022/09/13 20:16:35;;;;;;;;;8.00;8.00;;;;;24.48;47.92;100089.44;5121582;27;45334;-50
2022/09/13 20:19:01;;;;;;;;;7.25;6.50;;;;;24.49;47.44;100093.75;5117781;27;45304;-48
2022/09/13 20:21:29;;;;;;;;;8.50;8.50;;;;;24.47;48.03;100088.59;5117937;27;45387;-51
2022/09/13 20:23:59;;;;;;;;;9.00;9.00;;;;;24.47;47.86;100096.56;5117715;27;45413;-53
2022/09/13 20:26:25;;;;;;;;;10.25;8.25;;;;;24.48;47.86;100097.38;5117899;27;46100;-49